createdAt,value
2022-11-29T00:02:40.562Z,43.60
2022-11-29T00:07:44.222Z,43.74
2022-11-29T00:12:47.704Z,43.73
2022-11-29T00:17:51.143Z,43.57
2022-11-29T00:22:54.538Z,43.62
2022-11-29T00:27:57.944Z,43.69
2022-11-29T00:33:03.127Z,43.67
2022-11-29T00:38:06.519Z,43.54
2022-11-29T00:43:10.013Z,43.55
2022-11-29T00:48:13.400Z,43.62
2022-11-29T00:53:16.818Z,43.39
2022-11-29T00:58:20.299Z,43.33
2022-11-29T01:03:23.708Z,43.13
2022-11-29T01:08:28.168Z,43.15
2022-11-29T01:13:31.577Z,43.11
2022-11-29T01:18:35.004Z,43.01
2022-11-29T01:23:38.392Z,42.79
2022-11-29T01:28:42.163Z,43.02
2022-11-29T01:33:45.705Z,43.18
2022-11-29T01:38:49.120Z,43.06
2022-11-29T01:43:52.525Z,43.15
2022-11-29T01:48:55.907Z,43.25
2022-11-29T01:53:59.307Z,43.22
2022-11-29T01:59:02.719Z,43.28
2022-11-29T02:04:06.083Z,43.35
2022-11-29T02:09:09.516Z,43.46
2022-11-29T02:14:12.931Z,43.43
2022-11-29T02:19:16.306Z,43.43
2022-11-29T02:24:20.865Z,43.40
2022-11-29T02:29:24.330Z,43.17
2022-11-29T02:34:27.971Z,43.27
2022-11-29T02:39:31.389Z,43.07
2022-11-29T02:44:34.772Z,43.15
2022-11-29T02:49:38.144Z,43.24
2022-11-29T02:54:41.700Z,43.14
2022-11-29T02:59:45.452Z,43.20
2022-11-29T03:04:48.878Z,43.37
2022-11-29T03:09:52.288Z,43.33
2022-11-29T03:14:55.776Z,43.27
2022-11-29T03:19:59.374Z,43.18
2022-11-29T03:25:02.788Z,43.12
2022-11-29T03:30:06.170Z,43.16
2022-11-29T03:35:09.554Z,43.17
2022-11-29T03:40:12.929Z,43.33
2022-11-29T03:45:16.357Z,43.10
2022-11-29T03:50:19.830Z,43.18
2022-11-29T03:55:23.253Z,43.12
2022-11-29T04:00:26.708Z,43.00
2022-11-29T04:05:30.349Z,42.86
2022-11-29T04:10:33.792Z,42.97
2022-11-29T04:15:37.507Z,42.81
2022-11-29T04:20:44.172Z,42.96
2022-11-29T04:25:51.393Z,42.99
2022-11-29T04:30:54.802Z,42.99
2022-11-29T04:35:58.245Z,43.06
2022-11-29T04:41:01.686Z,43.13
2022-11-29T04:46:05.173Z,43.10
2022-11-29T04:51:09.737Z,43.07
2022-11-29T04:56:13.183Z,42.96
2022-11-29T05:01:16.653Z,42.92
2022-11-29T05:06:20.327Z,42.98
2022-11-29T05:11:26.944Z,42.84
2022-11-29T05:16:30.931Z,42.88
2022-11-29T05:21:34.326Z,42.78
2022-11-29T05:26:37.687Z,42.85
2022-11-29T05:31:41.289Z,42.75
2022-11-29T05:36:44.724Z,42.72
2022-11-29T05:41:48.128Z,42.68
2022-11-29T05:46:52.592Z,42.71
2022-11-29T05:51:56.030Z,42.75
2022-11-29T05:56:59.456Z,42.66
2022-11-29T06:02:02.888Z,42.37
2022-11-29T06:07:07.128Z,42.81
2022-11-29T06:12:10.520Z,43.27
2022-11-29T06:17:13.928Z,42.99
2022-11-29T06:22:20.996Z,42.79
2022-11-29T06:27:24.577Z,42.64
2022-11-29T06:32:28.132Z,42.60
2022-11-29T06:37:31.503Z,42.60
2022-11-29T06:42:35.005Z,42.58
2022-11-29T06:47:38.482Z,42.65
2022-11-29T06:52:41.977Z,42.60
2022-11-29T06:57:45.475Z,42.52
2022-11-29T07:02:48.917Z,42.35
2022-11-29T07:07:53.221Z,42.72
2022-11-29T07:12:56.748Z,42.16
2022-11-29T07:18:00.146Z,41.61
2022-11-29T07:23:03.571Z,41.74
2022-11-29T07:28:06.978Z,42.63
2022-11-29T07:33:10.391Z,42.61
2022-11-29T07:38:13.850Z,42.27
2022-11-29T07:43:17.604Z,41.95
2022-11-29T07:48:21.069Z,41.95
2022-11-29T07:53:24.454Z,41.73
2022-11-29T07:58:27.980Z,41.40
2022-11-29T08:03:32.973Z,40.92
2022-11-29T08:08:42.217Z,39.69
2022-11-29T08:13:47.684Z,39.10
2022-11-29T08:18:52.160Z,39.15
2022-11-29T08:23:55.577Z,37.85
2022-11-29T08:28:58.968Z,37.43
2022-11-29T08:34:02.413Z,39.25
2022-11-29T08:39:09.151Z,38.80
2022-11-29T08:44:13.177Z,38.84
2022-11-29T08:49:16.606Z,39.27
2022-11-29T08:54:20.067Z,39.67
2022-11-29T08:59:23.451Z,40.04
2022-11-29T09:04:26.831Z,39.59
2022-11-29T09:09:30.211Z,40.04
2022-11-29T09:14:33.599Z,39.73
2022-11-29T09:19:37.025Z,39.19
2022-11-29T09:24:40.429Z,39.50
2022-11-29T09:29:43.929Z,39.17
2022-11-29T09:34:47.748Z,38.83
2022-11-29T09:39:51.342Z,39.04
2022-11-29T09:44:54.724Z,39.38
2022-11-29T09:49:58.129Z,39.91
2022-11-29T09:55:01.657Z,39.22
2022-11-29T10:00:05.078Z,39.14
2022-11-29T10:05:08.815Z,38.87
2022-11-29T10:10:12.198Z,38.88
2022-11-29T10:15:17.026Z,38.80
2022-11-29T10:20:20.571Z,38.79
2022-11-29T10:25:24.031Z,38.97
2022-11-29T10:30:27.545Z,38.99
2022-11-29T10:35:31.081Z,38.82
2022-11-29T10:40:34.660Z,39.08
2022-11-29T10:45:39.083Z,39.21
2022-11-29T10:50:44.017Z,39.07
2022-11-29T10:55:47.428Z,39.63
2022-11-29T11:00:50.960Z,39.92
2022-11-29T11:05:54.572Z,39.72
2022-11-29T11:11:01.838Z,40.20
2022-11-29T11:16:05.750Z,40.21
2022-11-29T11:21:09.234Z,40.21
2022-11-29T11:26:12.712Z,40.32
2022-11-29T11:31:16.288Z,40.44
2022-11-29T11:36:20.863Z,40.42
2022-11-29T11:41:44.307Z,40.42
2022-11-29T11:46:47.724Z,40.48
2022-11-29T11:51:51.192Z,40.49
2022-11-29T11:56:54.595Z,40.49
2022-11-29T12:01:59.097Z,40.49
2022-11-29T12:07:02.951Z,41.29
2022-11-29T12:12:06.340Z,41.06
2022-11-29T12:17:09.757Z,42.05
2022-11-29T12:22:13.265Z,41.59
2022-11-29T12:27:16.776Z,41.58
2022-11-29T12:32:20.302Z,41.29
2022-11-29T12:37:23.829Z,41.21
2022-11-29T12:42:27.237Z,41.35
2022-11-29T12:47:37.982Z,41.59
2022-11-29T12:52:43.607Z,41.42
2022-11-29T12:57:47.065Z,41.45
2022-11-29T13:02:50.558Z,41.21
2022-11-29T13:07:54.341Z,41.52
2022-11-29T13:12:57.727Z,41.93
2022-11-29T13:18:01.116Z,42.36
2022-11-29T13:23:04.508Z,41.79
2022-11-29T13:28:07.916Z,42.13
2022-11-29T13:33:11.343Z,42.19
2022-11-29T13:38:14.786Z,42.52
2022-11-29T13:43:19.322Z,42.44
2022-11-29T13:48:27.853Z,42.21
2022-11-29T13:53:31.633Z,42.36
2022-11-29T13:58:35.020Z,42.39
2022-11-29T14:03:38.961Z,42.43
2022-11-29T14:09:10.805Z,42.24
2022-11-29T14:14:05.859Z,42.35
2022-11-29T14:19:09.749Z,42.81
2022-11-29T14:24:13.261Z,42.56
2022-11-29T14:29:16.648Z,42.77
2022-11-29T14:34:20.161Z,42.21
2022-11-29T14:39:23.697Z,42.35
2022-11-29T14:44:28.179Z,42.26
2022-11-29T14:49:31.696Z,42.49
2022-11-29T14:54:35.281Z,42.30
2022-11-29T14:59:38.812Z,42.51
2022-11-29T15:04:42.233Z,42.83
2022-11-29T15:09:45.612Z,42.73
2022-11-29T15:14:49.207Z,42.57
2022-11-29T15:19:52.592Z,42.91
2022-11-29T15:24:56.038Z,43.51
2022-11-29T15:29:59.998Z,43.53
2022-11-29T15:35:03.404Z,42.99
2022-11-29T15:40:06.835Z,42.90
2022-11-29T15:45:10.254Z,44.04
2022-11-29T15:50:13.709Z,43.02
2022-11-29T15:55:17.204Z,43.77
2022-11-29T16:00:21.678Z,43.18
2022-11-29T16:05:25.090Z,42.84
2022-11-29T16:10:34.852Z,42.57
2022-11-29T16:15:38.900Z,43.05
2022-11-29T16:20:45.462Z,43.02
2022-11-29T16:25:48.828Z,42.68
2022-11-29T16:30:52.195Z,42.46
2022-11-29T16:35:55.576Z,42.60
2022-11-29T16:40:59.012Z,42.54
2022-11-29T16:46:02.498Z,40.98
2022-11-29T16:51:05.914Z,40.92
2022-11-29T16:56:09.395Z,39.64
2022-11-29T17:01:12.846Z,40.56
2022-11-29T17:06:16.379Z,39.27
2022-11-29T17:11:19.874Z,39.36
2022-11-29T17:16:23.383Z,39.44
2022-11-29T17:21:26.899Z,39.56
2022-11-29T17:26:30.512Z,39.97
2022-11-29T17:31:34.002Z,40.12
2022-11-29T17:36:37.590Z,40.29
2022-11-29T17:41:40.958Z,40.42
2022-11-29T17:46:44.374Z,40.32
2022-11-29T17:51:52.598Z,40.42
2022-11-29T17:56:56.638Z,40.55
2022-11-29T18:02:03.930Z,40.53
2022-11-29T18:07:07.439Z,41.42
2022-11-29T18:12:13.784Z,41.17
2022-11-29T18:17:17.163Z,41.99
2022-11-29T18:22:20.585Z,41.95
2022-11-29T18:27:24.145Z,43.21
2022-11-29T18:32:27.623Z,42.50
2022-11-29T18:37:57.434Z,42.47
2022-11-29T18:42:54.329Z,42.40
2022-11-29T18:47:57.892Z,42.38
2022-11-29T18:53:01.497Z,42.27
2022-11-29T18:58:06.635Z,42.22
2022-11-29T19:03:10.036Z,42.14
2022-11-29T19:08:13.474Z,42.14
2022-11-29T19:13:16.909Z,42.69
2022-11-29T19:18:20.313Z,42.98
2022-11-29T19:23:23.892Z,43.10
2022-11-29T19:28:27.247Z,42.73
2022-11-29T19:33:30.611Z,42.82
2022-11-29T19:38:33.999Z,42.37
2022-11-29T19:43:37.479Z,42.39
2022-11-29T19:48:40.915Z,42.65
2022-11-29T19:53:44.324Z,42.52
2022-11-29T19:58:47.763Z,42.23
2022-11-29T20:03:51.290Z,43.87
2022-11-29T20:08:54.744Z,43.23
2022-11-29T20:13:58.191Z,43.36
2022-11-29T20:19:01.655Z,42.97
2022-11-29T20:24:05.175Z,42.71
2022-11-29T20:29:08.619Z,43.23
2022-11-29T20:34:12.168Z,43.00
2022-11-29T20:39:15.578Z,42.95
2022-11-29T20:44:19.013Z,41.78
2022-11-29T20:49:22.421Z,41.68
2022-11-29T20:54:25.800Z,41.88
2022-11-29T20:59:29.168Z,42.05
2022-11-29T21:04:32.523Z,41.73
2022-11-29T21:09:35.915Z,41.75
2022-11-29T21:14:39.300Z,41.81
2022-11-29T21:19:42.684Z,42.17
2022-11-29T21:24:47.225Z,42.70
2022-11-29T21:29:50.787Z,42.38
2022-11-29T21:34:54.147Z,42.13
2022-11-29T21:39:57.600Z,42.19
2022-11-29T21:45:00.986Z,42.32
2022-11-29T21:50:04.362Z,41.88
2022-11-29T21:55:07.752Z,42.04
2022-11-29T22:00:11.207Z,41.94
2022-11-29T22:05:14.595Z,42.02
2022-11-29T22:10:18.005Z,41.84
2022-11-29T22:15:24.837Z,41.86
2022-11-29T22:20:28.900Z,41.94
2022-11-29T22:25:32.327Z,41.93
2022-11-29T22:30:35.934Z,42.02
2022-11-29T22:35:39.350Z,42.06
2022-11-29T22:40:42.769Z,42.15
2022-11-29T22:45:46.179Z,42.19
2022-11-29T22:50:49.584Z,42.14
2022-11-29T22:55:53.056Z,42.36
2022-11-29T23:00:56.474Z,42.31
2022-11-29T23:06:01.911Z,42.60
2022-11-29T23:11:05.270Z,42.49
2022-11-29T23:16:08.687Z,42.55
2022-11-29T23:21:12.179Z,42.86
2022-11-29T23:26:15.531Z,42.90
2022-11-29T23:31:18.957Z,42.84
2022-11-29T23:36:22.354Z,42.89
2022-11-29T23:41:25.800Z,42.95
2022-11-29T23:46:29.179Z,43.40
2022-11-29T23:51:32.543Z,43.02
2022-11-29T23:56:36.107Z,43.15
